Time;durP1;ratioP1;P1;durP2;ratioP2;P2;SDS_P1;SDS_P2;PMS_P1;PMS_P2;Temp;Humidity;BMP_temperature;BMP_pressure;BME280_temperature;BME280_humidity;BME280_pressure;Samples;Min_cycle;Max_cycle;Signal;HPM_P1;HPM_P2
2022/05/07 00:00:05;;;;;;;6.25;3.97;;;12.20;99.90;;;;;;170884;28;1512;-69
2022/05/07 00:00:11;;;;;;;6.18;3.92;;;12.20;99.90;;;;;;171724;28;1331;-71
2022/05/07 00:00:17;;;;;;;6.80;4.22;;;12.20;99.90;;;;;;172493;28;899;-72
2022/05/07 00:00:23;;;;;;;6.87;4.30;;;12.20;99.90;;;;;;171621;28;1196;-70
2022/05/07 00:00:30;;;;;;;9.03;4.30;;;12.20;99.90;;;;;;171800;28;885;-70
2022/05/07 00:00:36;;;;;;;8.73;4.13;;;12.20;99.90;;;;;;171782;28;875;-71
2022/05/07 00:00:42;;;;;;;9.27;4.18;;;12.20;99.90;;;;;;172532;28;905;-71
2022/05/07 00:00:47;;;;;;;9.20;4.20;;;12.20;99.90;;;;;;171800;28;923;-72
2022/05/07 00:00:53;;;;;;;9.23;4.17;;;12.20;99.90;;;;;;172425;28;1304;-71
2022/05/07 00:00:59;;;;;;;7.22;4.00;;;12.20;99.90;;;;;;172479;28;1002;-70
2022/05/07 00:01:04;;;;;;;6.60;4.22;;;12.20;99.90;;;;;;173019;28;1577;-72
2022/05/07 00:01:10;;;;;;;6.27;4.23;;;12.20;99.90;;;;;;173049;28;1571;-71
2022/05/07 00:01:17;;;;;;;5.43;4.07;;;12.20;99.90;;;;;;172842;28;1587;-68
2022/05/07 00:01:23;;;;;;;5.37;3.90;;;12.20;99.90;;;;;;172986;28;1695;-71
2022/05/07 00:01:29;;;;;;;4.97;3.80;;;12.30;99.90;;;;;;173199;28;864;-70
2022/05/07 00:01:34;;;;;;;4.90;3.58;;;12.30;99.90;;;;;;173059;28;1220;-72
2022/05/07 00:01:42;;;;;;;5.27;3.57;;;12.30;99.90;;;;;;173071;28;1358;-71
2022/05/07 00:01:47;;;;;;;5.43;3.53;;;12.30;99.90;;;;;;173062;28;1294;-72
2022/05/07 00:01:53;;;;;;;5.27;3.63;;;12.30;99.90;;;;;;173164;28;1466;-70
2022/05/07 00:01:59;;;;;;;5.43;3.78;;;12.30;99.90;;;;;;172434;28;1197;-71
2022/05/07 00:02:07;;;;;;;5.93;3.88;;;12.30;99.90;;;;;;172490;28;820;-72
2022/05/07 00:02:12;;;;;;;7.08;3.94;;;12.30;99.90;;;;;;172519;28;875;-71
2022/05/07 00:02:18;;;;;;;8.55;4.13;;;12.30;99.90;;;;;;172362;28;1311;-71
2022/05/07 00:02:24;;;;;;;8.55;4.07;;;12.30;99.90;;;;;;172748;28;1579;-71
2022/05/07 00:02:30;;;;;;;8.68;4.10;;;12.40;99.90;;;;;;172341;28;1465;-72
2022/05/07 00:02:36;;;;;;;8.05;4.20;;;12.40;99.90;;;;;;172492;28;890;-71
2022/05/07 00:02:42;;;;;;;7.57;4.35;;;12.40;99.90;;;;;;172450;28;911;-70
2022/05/07 00:02:49;;;;;;;6.13;4.20;;;12.40;99.90;;;;;;172494;28;1934;-72
2022/05/07 00:02:55;;;;;;;6.00;4.10;;;12.40;99.90;;;;;;172362;28;1407;-72
2022/05/07 00:03:01;;;;;;;6.77;4.43;;;12.40;99.90;;;;;;172533;28;1002;-69
2022/05/07 00:03:07;;;;;;;6.38;4.28;;;12.40;99.90;;;;;;172411;28;1508;-71
2022/05/07 00:03:13;;;;;;;5.57;4.00;;;12.40;99.90;;;;;;172346;28;1382;-70
2022/05/07 00:03:19;;;;;;;5.65;4.00;;;12.40;99.90;;;;;;172472;28;1420;-68
2022/05/07 00:03:24;;;;;;;5.77;3.97;;;12.40;99.90;;;;;;172816;28;1803;-71
2022/05/07 00:03:30;;;;;;;5.45;3.75;;;12.40;99.90;;;;;;172083;28;1907;-71
2022/05/07 00:03:36;;;;;;;5.23;3.60;;;12.40;99.90;;;;;;172384;28;1371;-71
2022/05/07 00:03:42;;;;;;;6.78;3.70;;;12.40;99.90;;;;;;172501;28;916;-71
2022/05/07 00:03:47;;;;;;;6.90;3.80;;;12.40;99.90;;;;;;172470;28;994;-72
2022/05/07 00:03:53;;;;;;;7.15;3.97;;;12.40;99.90;;;;;;172803;28;2073;-72
2022/05/07 00:03:59;;;;;;;7.00;3.90;;;12.40;99.90;;;;;;173201;28;907;-71
2022/05/07 00:04:04;;;;;;;6.70;3.77;;;12.40;99.90;;;;;;173195;28;914;-71
2022/05/07 00:04:10;;;;;;;6.32;3.92;;;12.40;99.90;;;;;;172566;28;1739;-70
2022/05/07 00:04:16;;;;;;;6.00;3.88;;;12.40;99.90;;;;;;172411;28;828;-70
2022/05/07 00:04:21;;;;;;;5.87;3.77;;;12.40;99.90;;;;;;173147;28;801;-70
2022/05/07 00:04:27;;;;;;;5.82;3.75;;;12.40;99.90;;;;;;172519;28;864;-71
2022/05/07 00:04:35;;;;;;;6.60;4.10;;;12.40;99.90;;;;;;172372;28;1823;-72
2022/05/07 00:04:43;;;;;;;6.77;4.13;;;12.40;99.90;;;;;;172517;28;872;-68
2022/05/07 00:04:48;;;;;;;6.44;4.18;;;12.40;99.90;;;;;;172509;28;938;-70
2022/05/07 00:04:54;;;;;;;6.38;4.40;;;12.50;99.90;;;;;;172429;28;1069;-71
2022/05/07 00:05:00;;;;;;;6.00;4.40;;;12.40;99.90;;;;;;171861;28;1357;-71
2022/05/07 00:05:06;;;;;;;6.17;4.43;;;12.40;99.90;;;;;;172455;28;1378;-71
2022/05/07 00:05:12;;;;;;;5.93;4.30;;;12.50;99.90;;;;;;172411;28;1140;-71
2022/05/07 00:05:19;;;;;;;5.87;4.27;;;12.40;99.90;;;;;;172495;28;946;-71
2022/05/07 00:05:26;;;;;;;6.25;4.18;;;12.40;99.90;;;;;;172317;28;1482;-71
2022/05/07 00:05:32;;;;;;;7.13;4.27;;;12.50;99.90;;;;;;172469;28;856;-71
2022/05/07 00:05:38;;;;;;;7.00;4.25;;;12.50;99.90;;;;;;172484;28;970;-72
2022/05/07 00:05:44;;;;;;;7.02;4.26;;;12.50;99.90;;;;;;171783;28;867;-68
2022/05/07 00:05:50;;;;;;;7.17;4.37;;;12.50;99.90;;;;;;171858;28;840;-71
2022/05/07 00:05:55;;;;;;;7.40;4.43;;;12.50;99.90;;;;;;171786;28;867;-71
2022/05/07 00:06:01;;;;;;;6.55;4.30;;;12.50;99.90;;;;;;172499;28;1015;-70
2022/05/07 00:06:07;;;;;;;5.97;4.35;;;12.50;99.90;;;;;;171752;28;1225;-71
2022/05/07 00:06:13;;;;;;;6.57;4.63;;;12.50;99.90;;;;;;172346;28;1299;-70
2022/05/07 00:06:19;;;;;;;6.75;4.65;;;12.50;99.90;;;;;;172566;28;1068;-71
2022/05/07 00:06:25;;;;;;;6.47;4.57;;;12.50;99.90;;;;;;172462;28;1311;-70
2022/05/07 00:06:31;;;;;;;6.47;4.50;;;12.50;99.90;;;;;;171173;28;817;-71
2022/05/07 00:06:36;;;;;;;7.20;4.60;;;12.50;99.90;;;;;;171706;28;1287;-71
2022/05/07 00:06:42;;;;;;;7.40;4.50;;;12.50;99.90;;;;;;172535;28;1132;-72
2022/05/07 00:06:49;;;;;;;7.25;4.45;;;12.50;99.90;;;;;;172436;28;911;-72
2022/05/07 00:06:54;;;;;;;7.27;4.43;;;12.50;99.90;;;;;;172345;28;1272;-70
2022/05/07 00:07:00;;;;;;;7.15;4.35;;;12.50;99.90;;;;;;171805;28;1215;-71
2022/05/07 00:07:07;;;;;;;6.57;4.17;;;12.50;99.90;;;;;;172472;28;847;-70
2022/05/07 00:07:13;;;;;;;6.40;4.13;;;12.50;99.90;;;;;;171000;28;1311;-71
2022/05/07 00:07:19;;;;;;;7.03;4.22;;;12.50;99.90;;;;;;172449;28;879;-70
2022/05/07 00:07:24;;;;;;;7.80;4.23;;;12.50;99.90;;;;;;171858;28;920;-72
2022/05/07 00:07:30;;;;;;;7.95;4.30;;;12.50;99.90;;;;;;172417;28;1201;-71
2022/05/07 00:07:36;;;;;;;7.87;4.37;;;12.50;99.90;;;;;;172452;28;912;-68
2022/05/07 00:07:41;;;;;;;7.53;4.30;;;12.50;99.90;;;;;;171748;28;1331;-71
2022/05/07 00:07:47;;;;;;;6.72;4.20;;;12.50;99.90;;;;;;173203;28;909;-72
2022/05/07 00:07:53;;;;;;;5.75;4.10;;;12.50;99.90;;;;;;173156;28;954;-71
2022/05/07 00:07:59;;;;;;;5.53;4.20;;;12.50;99.90;;;;;;171492;28;2928;-69
2022/05/07 00:08:06;;;;;;;5.73;4.23;;;12.50;99.90;;;;;;172048;28;1205;-71
2022/05/07 00:08:11;;;;;;;5.67;4.20;;;12.50;99.90;;;;;;171750;28;1287;-71
2022/05/07 00:08:17;;;;;;;6.03;4.40;;;12.50;99.90;;;;;;171807;28;894;-71
2022/05/07 00:08:23;;;;;;;6.17;4.40;;;12.50;99.90;;;;;;171787;28;1426;-71
2022/05/07 00:08:29;;;;;;;5.85;4.20;;;12.50;99.90;;;;;;172340;28;1196;-71
2022/05/07 00:08:34;;;;;;;6.60;4.25;;;12.50;99.90;;;;;;172399;28;1331;-72
2022/05/07 00:08:40;;;;;;;6.90;4.25;;;12.50;99.90;;;;;;172386;28;1304;-71
2022/05/07 00:08:46;;;;;;;7.27;4.30;;;12.50;99.90;;;;;;171887;28;808;-71
2022/05/07 00:08:51;;;;;;;7.07;4.20;;;12.50;99.90;;;;;;172487;28;1209;-71
2022/05/07 00:08:57;;;;;;;7.55;4.40;;;12.50;99.90;;;;;;171723;28;1303;-71
2022/05/07 00:09:03;;;;;;;7.57;4.50;;;12.40;99.90;;;;;;173155;28;794;-71
2022/05/07 00:09:08;;;;;;;7.28;4.50;;;12.40;99.90;;;;;;173214;28;1248;-72
2022/05/07 00:09:14;;;;;;;6.72;4.35;;;12.40;99.90;;;;;;173126;28;942;-70
2022/05/07 00:09:20;;;;;;;6.38;4.18;;;12.40;99.90;;;;;;172547;28;1049;-71
2022/05/07 00:09:26;;;;;;;6.43;4.13;;;12.50;99.90;;;;;;172506;28;864;-70
2022/05/07 00:09:32;;;;;;;6.03;4.13;;;12.40;99.90;;;;;;172471;28;919;-71
2022/05/07 00:09:38;;;;;;;6.20;4.20;;;12.40;99.90;;;;;;171851;28;816;-71
2022/05/07 00:09:44;;;;;;;6.30;4.20;;;12.40;99.90;;;;;;171846;28;955;-72
2022/05/07 00:09:50;;;;;;;6.82;4.40;;;12.40;99.90;;;;;;172351;28;1321;-71
2022/05/07 00:09:55;;;;;;;6.95;4.60;;;12.40;99.90;;;;;;172511;28;867;-69
2022/05/07 00:10:01;;;;;;;6.50;4.55;;;12.40;99.90;;;;;;172099;28;2033;-70
2022/05/07 00:10:08;;;;;;;6.20;4.43;;;12.40;99.90;;;;;;172495;28;1045;-72
2022/05/07 00:10:15;;;;;;;5.97;4.30;;;12.40;99.90;;;;;;171479;28;1664;-72
2022/05/07 00:10:20;;;;;;;5.26;3.96;;;12.50;99.90;;;;;;172445;28;1622;-70
2022/05/07 00:10:26;;;;;;;5.13;3.67;;;12.50;99.90;;;;;;172466;28;1065;-71
2022/05/07 00:10:32;;;;;;;5.43;3.70;;;12.50;99.90;;;;;;172469;28;828;-70
2022/05/07 00:10:38;;;;;;;5.63;3.75;;;12.40;99.90;;;;;;172441;28;1120;-69
2022/05/07 00:10:44;;;;;;;5.80;3.80;;;12.50;99.90;;;;;;171762;28;1222;-70
2022/05/07 00:10:50;;;;;;;5.85;3.83;;;12.40;99.90;;;;;;171829;28;931;-72
2022/05/07 00:10:55;;;;;;;5.68;3.90;;;12.40;99.90;;;;;;171059;28;1209;-70
2022/05/07 00:11:01;;;;;;;5.53;3.80;;;12.40;99.90;;;;;;171795;28;1001;-71
2022/05/07 00:11:07;;;;;;;5.57;3.65;;;12.40;99.90;;;;;;171797;28;856;-72
2022/05/07 00:11:15;;;;;;;5.78;3.72;;;12.40;99.90;;;;;;171858;28;912;-71
2022/05/07 00:11:20;;;;;;;5.60;3.73;;;12.40;99.90;;;;;;171830;28;951;-70
2022/05/07 00:11:26;;;;;;;5.70;3.70;;;12.40;99.90;;;;;;172411;28;1387;-71
2022/05/07 00:11:32;;;;;;;5.20;3.67;;;12.40;99.90;;;;;;172413;28;1220;-71
2022/05/07 00:11:37;;;;;;;4.87;3.70;;;12.40;99.90;;;;;;171822;28;820;-72
2022/05/07 00:11:43;;;;;;;4.55;3.60;;;12.40;99.90;;;;;;172760;28;2777;-71
2022/05/07 00:11:49;;;;;;;4.50;3.67;;;12.40;99.90;;;;;;172514;28;1846;-71
2022/05/07 00:11:55;;;;;;;4.40;3.70;;;12.40;99.90;;;;;;171895;28;2523;-69
2022/05/07 00:12:02;;;;;;;4.83;3.90;;;12.40;99.90;;;;;;171707;28;977;-71
2022/05/07 00:12:08;;;;;;;5.22;3.96;;;12.40;99.90;;;;;;171885;28;1007;-71
2022/05/07 00:12:14;;;;;;;6.47;4.10;;;12.40;99.90;;;;;;171796;28;923;-71
2022/05/07 00:12:20;;;;;;;6.53;4.10;;;12.40;99.90;;;;;;171754;28;1246;-71
2022/05/07 00:12:25;;;;;;;6.95;4.05;;;12.40;99.90;;;;;;172359;28;1413;-71
2022/05/07 00:12:31;;;;;;;6.47;3.87;;;12.40;99.90;;;;;;173205;28;833;-71
2022/05/07 00:12:37;;;;;;;6.25;3.78;;;12.40;99.90;;;;;;173124;28;847;-68
2022/05/07 00:12:43;;;;;;;5.72;3.75;;;12.40;99.90;;;;;;173213;28;808;-71
2022/05/07 00:12:49;;;;;;;5.10;3.70;;;12.40;99.90;;;;;;172383;28;1361;-71
2022/05/07 00:12:54;;;;;;;4.65;3.72;;;12.40;99.90;;;;;;173187;28;970;-71
2022/05/07 00:13:00;;;;;;;4.80;3.80;;;12.40;99.90;;;;;;172461;28;804;-72
2022/05/07 00:13:06;;;;;;;4.90;3.90;;;12.40;99.90;;;;;;172456;28;919;-70
2022/05/07 00:13:12;;;;;;;4.68;3.85;;;12.40;99.90;;;;;;171823;28;1449;-69
2022/05/07 00:13:18;;;;;;;4.90;3.85;;;12.40;99.90;;;;;;173104;28;1580;-72
2022/05/07 00:13:24;;;;;;;5.13;3.90;;;12.40;99.90;;;;;;171714;28;1240;-70
2022/05/07 00:13:29;;;;;;;5.25;3.80;;;12.40;99.90;;;;;;170387;28;1258;-71
2022/05/07 00:13:35;;;;;;;5.20;3.80;;;12.40;99.90;;;;;;171400;28;1652;-70
2022/05/07 00:13:42;;;;;;;5.30;3.70;;;12.40;99.90;;;;;;171769;28;1433;-71
2022/05/07 00:13:49;;;;;;;5.98;3.90;;;12.40;99.90;;;;;;172259;28;1513;-71
2022/05/07 00:13:55;;;;;;;6.36;3.98;;;12.40;99.90;;;;;;171744;28;1148;-71
2022/05/07 00:14:01;;;;;;;6.72;4.18;;;12.40;99.90;;;;;;172525;28;867;-70
2022/05/07 00:14:07;;;;;;;7.78;4.25;;;12.40;99.90;;;;;;172400;28;1206;-71
2022/05/07 00:14:13;;;;;;;7.60;4.27;;;12.40;99.90;;;;;;173154;28;1029;-71
2022/05/07 00:14:18;;;;;;;6.88;4.05;;;12.40;99.90;;;;;;172488;28;887;-70
2022/05/07 00:14:25;;;;;;;6.60;3.90;;;12.40;99.90;;;;;;173148;28;1061;-71
2022/05/07 00:14:30;;;;;;;6.62;3.90;;;12.40;99.90;;;;;;173227;28;976;-70
2022/05/07 00:14:36;;;;;;;5.20;3.63;;;12.40;99.90;;;;;;172424;28;895;-69
2022/05/07 00:14:43;;;;;;;5.05;3.58;;;12.30;99.90;;;;;;172431;28;1191;-71
2022/05/07 00:14:48;;;;;;;4.83;3.60;;;12.40;99.90;;;;;;172540;28;1034;-70
2022/05/07 00:14:54;;;;;;;4.60;3.47;;;12.40;99.90;;;;;;172499;28;883;-71
2022/05/07 00:15:00;;;;;;;3.92;3.22;;;12.40;99.90;;;;;;172448;28;951;-71
2022/05/07 00:15:07;;;;;;;4.22;3.17;;;12.40;99.90;;;;;;171959;28;1651;-69
2022/05/07 00:15:13;;;;;;;4.22;3.16;;;12.40;99.90;;;;;;171523;28;1104;-71
2022/05/07 00:15:19;;;;;;;4.53;3.30;;;12.30;99.90;;;;;;171865;28;813;-71
2022/05/07 00:15:24;;;;;;;4.53;3.30;;;12.30;99.90;;;;;;172526;28;1326;-71
2022/05/07 00:15:30;;;;;;;6.10;3.40;;;12.30;99.90;;;;;;171763;28;1312;-71
2022/05/07 00:15:36;;;;;;;6.30;3.55;;;12.30;99.90;;;;;;171785;28;1045;-72
2022/05/07 00:18:01;;;;;;;6.70;3.60;;;12.30;99.90;;;;;;171786;28;803;-72
2022/05/07 00:18:01;;;;;;;6.05;3.31;;;12.20;99.90;;;;;;169754;29;1176;-70
2022/05/07 00:18:10;;;;;;;4.61;3.05;;;12.20;99.90;;;;;;169756;29;1230;-71
2022/05/07 00:18:16;;;;;;;4.14;3.09;;;12.20;99.90;;;;;;169747;29;1036;-71
2022/05/07 00:18:22;;;;;;;3.75;3.00;;;12.20;99.90;;;;;;170358;29;1326;-72
2022/05/07 00:18:29;;;;;;;4.03;3.30;;;12.20;99.90;;;;;;170426;29;889;-71
2022/05/07 00:18:35;;;;;;;4.37;3.43;;;12.10;99.90;;;;;;170494;28;971;-71
2022/05/07 00:18:41;;;;;;;4.53;3.40;;;12.10;99.90;;;;;;171067;28;1187;-70
2022/05/07 00:18:46;;;;;;;4.90;3.60;;;12.20;99.90;;;;;;170378;29;1288;-72
2022/05/07 00:18:52;;;;;;;5.22;3.70;;;12.10;99.90;;;;;;171067;28;828;-71
2022/05/07 00:18:58;;;;;;;5.07;3.50;;;12.10;99.90;;;;;;170384;28;1217;-72
2022/05/07 00:19:04;;;;;;;4.93;3.53;;;12.10;99.90;;;;;;170712;28;1790;-70
2022/05/07 00:19:09;;;;;;;4.75;3.40;;;12.10;99.90;;;;;;171618;28;1207;-70
2022/05/07 00:19:15;;;;;;;4.60;3.33;;;12.10;99.90;;;;;;172298;28;1168;-69
2022/05/07 00:19:21;;;;;;;4.60;3.37;;;12.10;99.90;;;;;;173075;28;1308;-70
2022/05/07 00:19:26;;;;;;;4.55;3.35;;;12.10;99.90;;;;;;173075;28;999;-71
2022/05/07 00:19:32;;;;;;;4.45;3.25;;;12.10;99.90;;;;;;172435;28;899;-71
2022/05/07 00:19:38;;;;;;;4.63;3.33;;;12.20;99.90;;;;;;172442;28;878;-70
2022/05/07 00:19:43;;;;;;;4.63;3.45;;;12.20;99.90;;;;;;172508;28;938;-71
2022/05/07 00:19:49;;;;;;;4.60;3.53;;;12.20;99.90;;;;;;172545;28;828;-71
2022/05/07 00:19:55;;;;;;;5.13;3.42;;;12.20;99.90;;;;;;172460;28;844;-72
2022/05/07 00:20:01;;;;;;;5.50;3.53;;;12.10;99.90;;;;;;172660;28;1476;-70
2022/05/07 00:20:09;;;;;;;5.48;3.44;;;12.20;99.90;;;;;;172745;28;1433;-71
2022/05/07 00:20:15;;;;;;;5.18;3.20;;;12.20;99.90;;;;;;172335;28;1454;-72
2022/05/07 00:20:21;;;;;;;4.97;3.10;;;12.20;99.90;;;;;;171809;28;888;-70
2022/05/07 00:20:28;;;;;;;4.13;3.05;;;12.20;99.90;;;;;;171624;28;1231;-70
2022/05/07 00:20:34;;;;;;;4.18;3.14;;;12.20;99.90;;;;;;171085;28;1055;-70
2022/05/07 00:20:40;;;;;;;4.20;3.17;;;12.20;99.90;;;;;;171162;28;1236;-72
2022/05/07 00:20:45;;;;;;;4.25;3.20;;;12.20;99.90;;;;;;171113;28;1222;-70
2022/05/07 00:20:51;;;;;;;4.50;3.35;;;12.10;99.90;;;;;;170849;28;1844;-71
2022/05/07 00:20:57;;;;;;;4.53;3.40;;;12.20;99.90;;;;;;171084;28;883;-72
2022/05/07 00:21:03;;;;;;;4.50;3.40;;;12.20;99.90;;;;;;171132;28;903;-71
2022/05/07 00:21:08;;;;;;;5.00;3.42;;;12.20;99.90;;;;;;171017;28;1272;-71
2022/05/07 00:21:14;;;;;;;5.10;3.42;;;12.20;99.90;;;;;;172344;28;1181;-71
2022/05/07 00:21:20;;;;;;;4.80;3.23;;;12.20;99.90;;;;;;172478;28;1314;-72
2022/05/07 00:21:26;;;;;;;4.32;3.13;;;12.20;99.90;;;;;;172414;28;986;-70
2022/05/07 00:21:32;;;;;;;4.50;3.10;;;12.20;99.90;;;;;;173218;28;856;-72
2022/05/07 00:21:37;;;;;;;4.00;2.97;;;12.30;99.90;;;;;;172465;28;938;-71
2022/05/07 00:21:43;;;;;;;3.75;2.97;;;12.30;99.90;;;;;;171781;28;1192;-71
2022/05/07 00:21:49;;;;;;;4.30;3.07;;;12.30;99.90;;;;;;171169;28;892;-71
2022/05/07 00:21:54;;;;;;;4.90;3.22;;;12.30;99.90;;;;;;172479;28;1010;-70
2022/05/07 00:22:01;;;;;;;6.13;3.25;;;12.30;99.90;;;;;;173160;28;907;-71
2022/05/07 00:22:07;;;;;;;6.53;3.42;;;12.30;99.90;;;;;;171731;28;1366;-72
2022/05/07 00:22:14;;;;;;;7.05;3.50;;;12.30;99.90;;;;;;171793;28;1420;-72
2022/05/07 00:22:20;;;;;;;6.57;3.40;;;12.30;99.90;;;;;;172431;28;942;-71
2022/05/07 00:22:25;;;;;;;6.20;3.40;;;12.30;99.90;;;;;;171048;28;1517;-70
2022/05/07 00:22:31;;;;;;;4.83;3.33;;;12.30;99.90;;;;;;171755;28;1174;-71
2022/05/07 00:22:37;;;;;;;4.72;3.25;;;12.30;99.90;;;;;;171733;28;2020;-72
2022/05/07 00:22:42;;;;;;;4.53;3.28;;;12.30;99.90;;;;;;171568;28;1991;-71
2022/05/07 00:22:48;;;;;;;4.35;3.25;;;12.30;99.90;;;;;;171175;28;880;-72
2022/05/07 00:22:55;;;;;;;4.63;3.30;;;12.30;99.90;;;;;;171066;28;987;-70
2022/05/07 00:23:01;;;;;;;4.70;3.30;;;12.30;99.90;;;;;;171743;28;1448;-69
2022/05/07 00:23:07;;;;;;;4.78;3.42;;;12.30;99.90;;;;;;171123;28;926;-71
2022/05/07 00:23:12;;;;;;;5.20;3.55;;;12.30;99.90;;;;;;171028;28;1417;-71
2022/05/07 00:23:18;;;;;;;5.82;3.70;;;12.30;99.90;;;;;;171062;28;1574;-72
2022/05/07 00:23:24;;;;;;;5.77;3.77;;;12.30;99.90;;;;;;171813;28;792;-70
2022/05/07 00:23:30;;;;;;;5.93;3.72;;;12.30;99.90;;;;;;171803;28;1066;-70
2022/05/07 00:23:37;;;;;;;6.42;3.64;;;12.30;99.90;;;;;;171743;28;903;-72
2022/05/07 00:23:43;;;;;;;5.90;3.42;;;12.30;99.90;;;;;;171791;28;911;-71
2022/05/07 00:23:49;;;;;;;5.47;3.30;;;12.30;99.90;;;;;;171783;28;1923;-69
2022/05/07 00:23:55;;;;;;;5.30;3.30;;;12.30;99.90;;;;;;172189;28;1763;-71
2022/05/07 00:24:02;;;;;;;5.15;3.30;;;12.30;99.90;;;;;;171769;28;868;-71
2022/05/07 00:24:08;;;;;;;4.53;3.30;;;12.30;99.90;;;;;;171092;28;1431;-72
2022/05/07 00:24:14;;;;;;;4.68;3.50;;;12.30;99.90;;;;;;171050;28;1249;-72
2022/05/07 00:24:20;;;;;;;4.72;3.58;;;12.30;99.90;;;;;;171128;28;852;-71
2022/05/07 00:24:25;;;;;;;5.20;3.50;;;12.30;99.90;;;;;;171747;28;1015;-71
2022/05/07 00:24:31;;;;;;;5.17;3.50;;;12.30;99.90;;;;;;171717;28;1397;-68
2022/05/07 00:24:37;;;;;;;5.32;3.50;;;12.30;99.90;;;;;;171843;28;868;-72
2022/05/07 00:24:43;;;;;;;5.15;3.55;;;12.30;99.90;;;;;;171831;28;801;-72
2022/05/07 00:24:50;;;;;;;5.00;3.42;;;12.30;99.90;;;;;;171745;28;1421;-71
2022/05/07 00:24:56;;;;;;;4.24;3.44;;;12.30;99.90;;;;;;172456;28;867;-71
2022/05/07 00:25:02;;;;;;;4.10;3.30;;;12.40;99.90;;;;;;172811;28;1833;-71
2022/05/07 00:25:08;;;;;;;4.80;3.17;;;12.30;99.90;;;;;;171716;28;1240;-71
2022/05/07 00:25:14;;;;;;;5.15;3.20;;;12.30;99.90;;;;;;171625;28;1911;-71
2022/05/07 00:25:20;;;;;;;5.35;3.30;;;12.30;99.90;;;;;;172519;28;824;-71
2022/05/07 00:25:27;;;;;;;5.45;3.35;;;12.30;99.90;;;;;;171324;28;1835;-70
2022/05/07 00:25:33;;;;;;;4.93;3.40;;;12.40;99.90;;;;;;171869;28;887;-71
2022/05/07 00:25:39;;;;;;;4.78;3.45;;;12.40;99.90;;;;;;171784;28;805;-71
2022/05/07 00:25:44;;;;;;;4.63;3.40;;;12.40;99.90;;;;;;171541;28;2284;-72
2022/05/07 00:25:50;;;;;;;4.63;3.35;;;12.40;99.90;;;;;;172446;28;836;-72
2022/05/07 00:25:56;;;;;;;4.60;3.30;;;12.40;99.90;;;;;;172505;28;880;-71
2022/05/07 00:26:02;;;;;;;4.57;3.30;;;12.40;99.90;;;;;;172462;28;855;-71
2022/05/07 00:26:07;;;;;;;4.70;3.40;;;12.40;99.90;;;;;;171065;28;2077;-71
2022/05/07 00:26:13;;;;;;;5.20;3.33;;;12.40;99.90;;;;;;171433;28;1542;-70
2022/05/07 00:26:19;;;;;;;5.78;3.40;;;12.40;99.90;;;;;;172247;28;1189;-72
2022/05/07 00:26:25;;;;;;;5.90;3.40;;;12.40;99.90;;;;;;171623;28;1801;-70
2022/05/07 00:26:30;;;;;;;6.43;3.60;;;12.40;99.90;;;;;;172950;28;1434;-68
2022/05/07 00:26:36;;;;;;;6.47;3.60;;;12.40;99.90;;;;;;173064;28;1211;-70
2022/05/07 00:26:42;;;;;;;6.25;3.67;;;12.40;99.90;;;;;;173162;28;859;-71
2022/05/07 00:26:47;;;;;;;5.80;3.67;;;12.40;99.90;;;;;;172387;28;1304;-71
2022/05/07 00:26:54;;;;;;;5.38;3.70;;;12.40;99.90;;;;;;172437;28;939;-71
2022/05/07 00:26:59;;;;;;;5.32;3.70;;;12.40;99.90;;;;;;172397;28;1438;-71
2022/05/07 00:27:05;;;;;;;5.32;3.60;;;12.40;99.90;;;;;;172479;28;919;-70
2022/05/07 00:27:13;;;;;;;4.90;3.38;;;12.40;99.90;;;;;;173124;28;919;-70
2022/05/07 00:27:20;;;;;;;4.47;3.30;;;12.40;99.90;;;;;;172535;28;930;-72
2022/05/07 00:27:25;;;;;;;4.68;3.13;;;12.40;99.90;;;;;;171821;28;975;-71
2022/05/07 00:27:31;;;;;;;4.30;2.90;;;12.40;99.90;;;;;;171009;28;1221;-71
2022/05/07 00:27:38;;;;;;;4.05;2.92;;;12.40;99.90;;;;;;171142;28;1097;-72
2022/05/07 00:27:43;;;;;;;4.47;3.00;;;12.40;99.90;;;;;;172522;28;1042;-71
2022/05/07 00:27:49;;;;;;;4.75;3.20;;;12.40;99.90;;;;;;172231;28;1786;-71
2022/05/07 00:27:55;;;;;;;4.65;3.30;;;12.40;99.90;;;;;;172412;28;962;-70
2022/05/07 00:28:01;;;;;;;4.57;3.40;;;12.40;99.90;;;;;;171899;28;2910;-70
2022/05/07 00:28:06;;;;;;;4.93;3.40;;;12.40;99.90;;;;;;172515;28;914;-71
2022/05/07 00:28:12;;;;;;;4.70;3.30;;;12.40;99.90;;;;;;172475;28;898;-71
2022/05/07 00:28:18;;;;;;;4.50;3.33;;;12.40;99.90;;;;;;171772;28;1054;-71
2022/05/07 00:28:23;;;;;;;4.43;3.13;;;12.40;99.90;;;;;;172398;28;1184;-70
2022/05/07 00:28:30;;;;;;;4.32;3.10;;;12.40;99.90;;;;;;171880;28;912;-72
2022/05/07 00:28:36;;;;;;;4.33;3.10;;;12.40;99.90;;;;;;171911;28;919;-71
2022/05/07 00:28:41;;;;;;;4.45;3.30;;;12.40;99.90;;;;;;171763;28;1381;-71
2022/05/07 00:28:47;;;;;;;4.55;3.25;;;12.40;99.90;;;;;;172387;28;1314;-72
2022/05/07 00:28:53;;;;;;;4.53;3.22;;;12.40;99.90;;;;;;172467;28;797;-71
2022/05/07 00:28:58;;;;;;;4.80;3.37;;;12.40;99.90;;;;;;172373;28;1165;-71
2022/05/07 00:29:04;;;;;;;4.80;3.38;;;12.40;99.90;;;;;;173185;28;859;-72
2022/05/07 00:29:10;;;;;;;4.60;3.33;;;12.40;99.90;;;;;;173112;28;1404;-70
2022/05/07 00:29:16;;;;;;;4.70;3.33;;;12.40;99.90;;;;;;173010;28;1590;-70
2022/05/07 00:29:21;;;;;;;4.70;3.45;;;12.40;99.90;;;;;;173066;28;1254;-71
2022/05/07 00:29:27;;;;;;;4.55;3.42;;;12.40;99.90;;;;;;173020;28;2057;-71
2022/05/07 00:29:33;;;;;;;4.55;3.40;;;12.40;99.90;;;;;;172410;28;1673;-71
2022/05/07 00:29:39;;;;;;;4.45;3.38;;;12.40;99.90;;;;;;171871;28;935;-71
2022/05/07 00:29:45;;;;;;;4.60;3.38;;;12.40;99.90;;;;;;171145;28;1526;-71
2022/05/07 00:29:50;;;;;;;4.53;3.33;;;12.40;99.90;;;;;;172477;28;978;-70
2022/05/07 00:29:56;;;;;;;4.63;3.45;;;12.40;99.90;;;;;;171808;28;1154;-70
2022/05/07 00:30:06;;;;;;;4.73;3.47;;;12.40;99.90;;;;;;171785;28;872;-71
2022/05/07 00:30:12;;;;;;;5.15;3.53;;;12.40;99.90;;;;;;171333;28;1570;-71
2022/05/07 00:30:18;;;;;;;5.22;3.40;;;12.40;99.90;;;;;;171821;28;916;-72
2022/05/07 00:30:23;;;;;;;5.10;3.28;;;12.40;99.90;;;;;;171158;28;816;-71
2022/05/07 00:30:29;;;;;;;5.10;3.20;;;12.40;99.90;;;;;;170973;28;1767;-71
2022/05/07 00:30:35;;;;;;;5.45;3.20;;;12.40;99.90;;;;;;171109;28;1234;-71
2022/05/07 00:30:41;;;;;;;6.22;3.40;;;12.40;99.90;;;;;;170531;29;1002;-71
2022/05/07 00:30:46;;;;;;;6.43;3.40;;;12.40;99.90;;;;;;171043;28;1374;-72
2022/05/07 00:30:52;;;;;;;6.28;3.38;;;12.40;99.90;;;;;;171156;28;962;-71
2022/05/07 00:30:58;;;;;;;6.18;3.42;;;12.40;99.90;;;;;;171108;28;1015;-72
2022/05/07 00:31:04;;;;;;;5.67;3.50;;;12.40;99.90;;;;;;171505;28;1708;-70
2022/05/07 00:31:09;;;;;;;4.47;3.35;;;12.40;99.90;;;;;;171742;28;1450;-71
2022/05/07 00:31:15;;;;;;;4.10;3.40;;;12.40;99.90;;;;;;172422;28;1405;-71
2022/05/07 00:31:21;;;;;;;4.33;3.60;;;12.40;99.90;;;;;;173069;28;1213;-70
2022/05/07 00:31:27;;;;;;;4.72;3.67;;;12.40;99.90;;;;;;172470;28;894;-71
2022/05/07 00:31:32;;;;;;;4.80;3.50;;;12.30;99.90;;;;;;173061;28;1182;-71
2022/05/07 00:31:38;;;;;;;4.60;3.35;;;12.30;99.90;;;;;;173111;28;1210;-71
2022/05/07 00:31:44;;;;;;;4.93;3.40;;;12.30;99.90;;;;;;173730;28;1193;-71
2022/05/07 00:31:50;;;;;;;5.30;3.50;;;12.30;99.90;;;;;;173878;28;918;-70
2022/05/07 00:31:56;;;;;;;5.05;3.50;;;12.30;99.90;;;;;;173870;28;974;-71
2022/05/07 00:32:01;;;;;;;5.13;3.60;;;12.30;99.90;;;;;;173809;28;788;-71
2022/05/07 00:32:09;;;;;;;5.82;3.92;;;12.30;99.90;;;;;;173822;28;1107;-71
2022/05/07 00:32:14;;;;;;;5.64;3.82;;;12.30;99.90;;;;;;173053;28;1354;-71
2022/05/07 00:32:20;;;;;;;5.70;3.80;;;12.30;99.90;;;;;;172530;28;986;-70
2022/05/07 00:32:26;;;;;;;6.22;4.03;;;12.30;99.90;;;;;;171079;28;1185;-70
2022/05/07 00:32:33;;;;;;;6.07;4.07;;;12.30;99.90;;;;;;170345;29;1608;-72
2022/05/07 00:32:38;;;;;;;5.64;3.96;;;12.30;99.90;;;;;;170461;29;1042;-70
2022/05/07 00:32:44;;;;;;;5.82;4.05;;;12.30;99.90;;;;;;170458;29;1066;-71
2022/05/07 00:32:50;;;;;;;5.23;3.93;;;12.30;99.90;;;;;;171093;28;1193;-70
2022/05/07 00:32:56;;;;;;;4.75;3.75;;;12.30;99.90;;;;;;171643;28;1418;-70
2022/05/07 00:33:01;;;;;;;4.97;3.83;;;12.30;99.90;;;;;;171827;28;924;-71
2022/05/07 00:33:07;;;;;;;4.97;3.78;;;12.30;99.90;;;;;;171718;28;1276;-71
2022/05/07 00:33:13;;;;;;;5.10;3.70;;;12.30;99.90;;;;;;171753;28;896;-71
2022/05/07 00:33:18;;;;;;;5.40;3.90;;;12.30;99.90;;;;;;172417;28;1271;-72
2022/05/07 00:33:24;;;;;;;6.72;3.83;;;12.30;99.90;;;;;;172490;28;884;-71
2022/05/07 00:33:30;;;;;;;6.83;3.77;;;12.30;99.90;;;;;;172451;28;1298;-70
2022/05/07 00:33:36;;;;;;;6.63;3.63;;;12.30;99.90;;;;;;172492;28;994;-71
2022/05/07 00:33:41;;;;;;;6.63;3.63;;;12.30;99.90;;;;;;172453;28;955;-72
2022/05/07 00:33:47;;;;;;;6.73;3.63;;;12.30;99.90;;;;;;172415;28;1210;-72
2022/05/07 00:33:53;;;;;;;5.72;3.58;;;12.30;99.90;;;;;;172455;28;931;-71
2022/05/07 00:33:59;;;;;;;5.57;3.50;;;12.30;99.90;;;;;;171716;28;1245;-68
2022/05/07 00:34:05;;;;;;;6.00;3.67;;;12.30;99.90;;;;;;172432;28;1418;-72
2022/05/07 00:34:11;;;;;;;5.98;3.72;;;12.30;99.90;;;;;;171066;28;2820;-71
2022/05/07 00:34:17;;;;;;;6.03;3.80;;;12.30;99.90;;;;;;171101;28;1045;-72